createdAt,value
2023-04-25T00:01:55.726Z,6.50
2023-04-25T00:04:22.766Z,6.50
2023-04-25T00:06:49.800Z,6.50
2023-04-25T00:09:16.490Z,6.50
2023-04-25T00:11:43.117Z,6.50
2023-04-25T00:14:10.903Z,6.40
2023-04-25T00:16:37.823Z,6.40
2023-04-25T00:19:04.517Z,6.40
2023-04-25T00:21:32.660Z,6.40
2023-04-25T00:24:00.174Z,6.40
2023-04-25T00:26:28.088Z,6.40
2023-04-25T00:28:54.659Z,6.40
2023-04-25T00:31:21.368Z,6.30
2023-04-25T00:33:48.978Z,6.20
2023-04-25T00:36:15.966Z,6.20
2023-04-25T00:38:42.528Z,6.30
2023-04-25T00:41:09.328Z,6.30
2023-04-25T00:43:37.739Z,6.30
2023-04-25T00:46:04.752Z,6.30
2023-04-25T00:48:31.381Z,6.40
2023-04-25T00:51:00.213Z,6.40
2023-04-25T00:53:29.037Z,6.40
2023-04-25T00:55:56.126Z,6.40
2023-04-25T00:58:24.130Z,6.40
2023-04-25T01:00:53.210Z,6.40
2023-04-25T01:03:24.059Z,6.40
2023-04-25T01:05:51.908Z,6.30
2023-04-25T01:08:18.536Z,6.30
2023-04-25T01:10:45.181Z,6.30
2023-04-25T01:13:11.911Z,6.20
2023-04-25T01:15:38.628Z,6.20
2023-04-25T01:18:08.774Z,6.20
2023-04-25T01:20:35.628Z,6.20
2023-04-25T01:23:04.077Z,6.20
2023-04-25T01:25:32.327Z,6.10
2023-04-25T01:27:59.622Z,6.10
2023-04-25T01:30:28.276Z,6.10
2023-04-25T01:32:59.824Z,6.00
2023-04-25T01:35:26.665Z,6.00
2023-04-25T01:37:54.325Z,5.90
2023-04-25T01:40:23.234Z,5.90
2023-04-25T01:42:50.196Z,5.90
2023-04-25T01:45:17.882Z,5.80
2023-04-25T01:47:49.788Z,5.80
2023-04-25T01:50:18.432Z,5.70
2023-04-25T01:52:45.429Z,5.70
2023-04-25T01:55:12.387Z,5.60
2023-04-25T01:57:39.329Z,5.60
2023-04-25T02:00:07.949Z,5.60
2023-04-25T02:02:34.730Z,5.60
2023-04-25T02:05:01.617Z,5.50
2023-04-25T02:07:29.368Z,5.40
2023-04-25T02:09:56.018Z,5.40
2023-04-25T02:12:22.625Z,5.30
2023-04-25T02:14:49.360Z,5.30
2023-04-25T02:17:16.939Z,5.30
2023-04-25T02:19:43.688Z,5.30
2023-04-25T02:22:11.364Z,5.30
2023-04-25T02:24:37.975Z,5.20
2023-04-25T02:27:04.574Z,5.10
2023-04-25T02:29:31.202Z,5.20
2023-04-25T02:31:58.057Z,5.10
2023-04-25T02:34:24.738Z,5.10
2023-04-25T02:36:51.897Z,5.00
2023-04-25T02:39:18.596Z,5.00
2023-04-25T02:41:45.259Z,5.00
2023-04-25T02:44:11.962Z,5.00
2023-04-25T02:46:39.700Z,4.90
2023-04-25T02:49:09.353Z,4.90
2023-04-25T02:51:35.990Z,4.80
2023-04-25T02:54:02.719Z,4.80
2023-04-25T02:56:29.344Z,4.80
2023-04-25T02:58:56.023Z,4.80
2023-04-25T03:01:22.863Z,4.80
2023-04-25T03:03:49.890Z,4.80
2023-04-25T03:06:17.013Z,4.70
2023-04-25T03:08:43.908Z,4.70
2023-04-25T03:11:11.399Z,4.70
2023-04-25T03:13:38.332Z,4.70
2023-04-25T03:16:05.474Z,4.70
2023-04-25T03:18:32.204Z,4.70
2023-04-25T03:20:59.120Z,4.70
2023-04-25T03:23:26.041Z,4.70
2023-04-25T03:25:52.652Z,4.70
2023-04-25T03:28:19.313Z,4.70
2023-04-25T03:30:45.913Z,4.70
2023-04-25T03:33:12.608Z,4.70
2023-04-25T03:35:39.277Z,4.70
2023-04-25T03:38:05.995Z,4.70
2023-04-25T03:40:32.686Z,4.70
2023-04-25T03:42:59.289Z,4.70
2023-04-25T03:45:25.975Z,4.70
2023-04-25T03:47:52.592Z,4.70
2023-04-25T03:50:19.218Z,4.70
2023-04-25T03:52:45.811Z,4.60
2023-04-25T03:55:12.555Z,4.70
2023-04-25T03:57:39.253Z,4.80
2023-04-25T04:00:07.502Z,4.80
2023-04-25T04:02:35.906Z,4.80
2023-04-25T04:05:03.775Z,5.00
2023-04-25T04:07:30.844Z,5.00
2023-04-25T04:09:57.409Z,5.00
2023-04-25T04:12:24.045Z,5.00
2023-04-25T04:14:50.669Z,5.00
2023-04-25T04:17:17.313Z,5.00
2023-04-25T04:19:43.958Z,5.10
2023-04-25T04:22:10.938Z,5.10
2023-04-25T04:24:37.535Z,5.10
2023-04-25T04:27:05.100Z,5.10
2023-04-25T04:29:32.024Z,5.10
2023-04-25T04:31:58.839Z,5.10
2023-04-25T04:34:26.757Z,5.10
2023-04-25T04:36:53.368Z,5.10
2023-04-25T04:39:20.003Z,5.10
2023-04-25T04:41:46.607Z,5.10
2023-04-25T04:44:13.398Z,5.10
2023-04-25T04:46:43.101Z,5.10
2023-04-25T04:49:11.000Z,5.10
2023-04-25T04:51:38.208Z,5.10
2023-04-25T04:54:05.625Z,5.10
2023-04-25T04:56:32.707Z,5.20
2023-04-25T04:59:00.644Z,5.20
2023-04-25T05:01:27.720Z,5.20
2023-04-25T05:03:55.221Z,5.20
2023-04-25T05:06:22.205Z,5.20
2023-04-25T05:08:48.969Z,5.20
2023-04-25T05:11:15.585Z,5.20
2023-04-25T05:13:42.188Z,5.20
2023-04-25T05:16:08.864Z,5.30
2023-04-25T05:18:36.142Z,5.30
2023-04-25T05:21:02.789Z,5.40
2023-04-25T05:23:32.608Z,5.40
2023-04-25T05:26:00.823Z,5.40
2023-04-25T05:28:27.527Z,5.40
2023-04-25T05:30:54.210Z,5.40
2023-04-25T05:33:21.015Z,5.50
2023-04-25T05:35:47.825Z,5.50
2023-04-25T05:38:14.451Z,5.50
2023-04-25T05:40:41.070Z,5.50
2023-04-25T05:43:08.233Z,5.60
2023-04-25T05:45:35.015Z,5.60
2023-04-25T05:48:01.780Z,5.60
2023-04-25T05:50:28.497Z,5.70
2023-04-25T05:52:55.275Z,5.70
2023-04-25T05:55:21.884Z,5.80
2023-04-25T05:57:50.151Z,5.80
2023-04-25T06:00:19.772Z,5.80
2023-04-25T06:02:46.641Z,5.80
2023-04-25T06:05:13.759Z,5.90
2023-04-25T06:07:40.584Z,5.90
2023-04-25T06:10:08.069Z,5.90
2023-04-25T06:12:34.718Z,6.00
2023-04-25T06:15:02.611Z,6.00
2023-04-25T06:17:30.169Z,6.10
2023-04-25T06:19:56.783Z,6.10
2023-04-25T06:22:23.397Z,6.20
2023-04-25T06:24:49.982Z,6.20
2023-04-25T06:27:17.157Z,6.30
2023-04-25T06:29:43.855Z,6.30
2023-04-25T06:32:10.540Z,6.30
2023-04-25T06:34:37.171Z,6.30
2023-04-25T06:37:03.778Z,6.30
2023-04-25T06:39:31.011Z,6.30
2023-04-25T06:41:57.674Z,6.30
2023-04-25T06:44:25.068Z,6.40
2023-04-25T06:46:51.888Z,6.50
2023-04-25T06:49:18.636Z,6.60
2023-04-25T06:51:45.322Z,6.60
2023-04-25T06:54:11.995Z,6.70
2023-04-25T06:56:38.662Z,6.80
2023-04-25T06:59:05.380Z,6.80
2023-04-25T07:01:32.040Z,6.90
2023-04-25T07:03:58.919Z,6.90
2023-04-25T07:06:26.873Z,7.10
2023-04-25T07:08:53.590Z,7.10
2023-04-25T07:11:20.688Z,7.20
2023-04-25T07:13:47.327Z,7.10
2023-04-25T07:16:14.052Z,7.30
2023-04-25T07:18:40.698Z,7.40
2023-04-25T07:21:07.315Z,7.30
2023-04-25T07:23:33.973Z,7.40
2023-04-25T07:26:00.733Z,7.50
2023-04-25T07:28:27.307Z,7.70
2023-04-25T07:30:54.000Z,7.70
2023-04-25T07:33:21.520Z,7.80
2023-04-25T07:35:48.349Z,7.90
2023-04-25T07:38:15.027Z,8.10
2023-04-25T07:40:41.612Z,8.30
2023-04-25T07:43:08.436Z,8.40
2023-04-25T07:45:35.087Z,8.40
2023-04-25T07:48:01.789Z,8.40
2023-04-25T07:50:28.464Z,8.40
2023-04-25T07:52:55.137Z,8.40
2023-04-25T07:55:21.970Z,8.40
2023-04-25T07:57:48.616Z,8.40
2023-04-25T08:00:16.126Z,8.30
2023-04-25T08:02:42.969Z,8.10
2023-04-25T08:05:12.873Z,8.10
2023-04-25T08:07:39.968Z,8.20
2023-04-25T08:10:07.728Z,8.30
2023-04-25T08:12:34.636Z,8.40
2023-04-25T08:15:01.334Z,8.40
2023-04-25T08:17:28.456Z,8.60
2023-04-25T08:19:55.120Z,8.80
2023-04-25T08:22:21.708Z,9.00
2023-04-25T08:24:48.295Z,8.90
2023-04-25T08:27:14.916Z,8.80
2023-04-25T08:29:43.072Z,8.90
2023-04-25T08:32:09.683Z,8.80
2023-04-25T08:34:37.760Z,8.70
2023-04-25T08:37:05.424Z,8.70
2023-04-25T08:39:32.065Z,9.00
2023-04-25T08:41:58.716Z,9.10
2023-04-25T08:44:25.982Z,9.20
2023-04-25T08:46:54.009Z,9.50
2023-04-25T08:49:20.747Z,9.30
2023-04-25T08:51:48.504Z,9.10
2023-04-25T08:54:30.191Z,9.10
2023-04-25T08:57:03.026Z,9.00
2023-04-25T08:59:30.573Z,9.00
2023-04-25T09:01:57.773Z,9.10
2023-04-25T09:04:27.436Z,9.00
2023-04-25T09:06:54.273Z,8.90
2023-04-25T09:09:21.007Z,9.10
2023-04-25T09:11:47.602Z,8.90
2023-04-25T09:14:23.527Z,8.70
2023-04-25T09:17:02.270Z,8.70
2023-04-25T09:19:40.211Z,8.80
2023-04-25T09:22:08.873Z,8.80
2023-04-25T09:24:45.229Z,8.80
2023-04-25T09:27:13.917Z,9.10
2023-04-25T09:29:41.926Z,9.20
2023-04-25T09:32:21.358Z,9.40
2023-04-25T09:34:50.604Z,9.80
2023-04-25T09:37:22.971Z,9.90
2023-04-25T09:39:51.469Z,9.70
2023-04-25T09:42:18.609Z,10.00
2023-04-25T09:44:46.821Z,10.30
2023-04-25T09:47:16.609Z,10.70
2023-04-25T09:49:44.080Z,10.70
2023-04-25T09:52:16.793Z,10.30
2023-04-25T09:54:43.432Z,10.50
2023-04-25T09:57:18.507Z,10.70
2023-04-25T09:59:47.575Z,10.60
2023-04-25T10:02:16.432Z,10.30
2023-04-25T10:04:45.792Z,10.10
2023-04-25T10:07:12.977Z,9.60
2023-04-25T10:09:40.871Z,9.60
2023-04-25T10:12:09.052Z,9.60
2023-04-25T10:14:36.638Z,9.80
2023-04-25T10:17:03.667Z,9.90
2023-04-25T10:19:30.908Z,9.50
2023-04-25T10:22:19.455Z,9.60
2023-04-25T10:24:47.709Z,9.90
2023-04-25T10:27:14.515Z,10.00
2023-04-25T10:29:44.412Z,10.20
2023-04-25T10:32:11.381Z,10.30
2023-04-25T10:34:43.437Z,10.20
2023-04-25T10:37:11.992Z,10.30
2023-04-25T10:39:41.426Z,10.00
2023-04-25T10:42:11.537Z,10.10
2023-04-25T10:44:40.261Z,10.30
2023-04-25T10:47:09.274Z,10.30
2023-04-25T10:49:38.481Z,10.30
2023-04-25T10:52:23.937Z,10.50
2023-04-25T10:54:59.855Z,10.60
2023-04-25T10:57:44.916Z,10.60
2023-04-25T11:00:16.393Z,10.50
2023-04-25T11:03:00.677Z,10.30
2023-04-25T11:05:36.455Z,10.40
2023-04-25T11:08:15.032Z,10.20
2023-04-25T11:10:42.030Z,10.00
2023-04-25T11:13:08.581Z,10.10
2023-04-25T11:15:35.379Z,10.30
2023-04-25T11:18:02.485Z,10.40
2023-04-25T11:20:29.956Z,10.90
2023-04-25T11:23:00.857Z,11.10
2023-04-25T11:25:27.924Z,11.40
2023-04-25T11:27:58.203Z,11.20
2023-04-25T11:30:26.468Z,11.00
2023-04-25T11:32:53.937Z,10.90
2023-04-25T11:35:23.858Z,10.70
2023-04-25T11:37:51.218Z,10.50
2023-04-25T11:40:18.234Z,10.50
2023-04-25T11:42:48.095Z,10.70
2023-04-25T11:45:15.717Z,11.10
2023-04-25T11:47:42.555Z,11.20
2023-04-25T11:50:09.862Z,11.20
2023-04-25T11:52:44.484Z,11.10
2023-04-25T11:55:16.304Z,11.70
2023-04-25T11:57:44.767Z,11.90
2023-04-25T12:00:19.414Z,12.00
2023-04-25T12:02:48.251Z,11.60
2023-04-25T12:05:30.968Z,12.10
2023-04-25T12:07:59.125Z,12.20
2023-04-25T12:10:26.822Z,12.80
2023-04-25T12:12:53.701Z,12.80
2023-04-25T12:15:25.768Z,12.70
2023-04-25T12:17:54.692Z,12.60
2023-04-25T12:20:26.043Z,11.70
2023-04-25T12:22:53.207Z,11.10
2023-04-25T12:25:39.463Z,11.60
2023-04-25T12:28:13.468Z,12.10
2023-04-25T12:30:57.470Z,11.90
2023-04-25T12:33:24.805Z,11.80
2023-04-25T12:35:51.621Z,12.00
2023-04-25T12:38:30.903Z,12.60
2023-04-25T12:40:59.365Z,12.60
2023-04-25T12:43:26.211Z,12.70
2023-04-25T12:45:57.361Z,12.50
2023-04-25T12:48:24.572Z,12.50
2023-04-25T12:50:53.225Z,12.10
2023-04-25T12:53:25.048Z,12.00
2023-04-25T12:55:52.153Z,11.50
2023-04-25T12:58:20.923Z,11.50
2023-04-25T13:00:47.764Z,12.10
2023-04-25T13:03:14.584Z,12.30
2023-04-25T13:05:42.052Z,12.40
2023-04-25T13:08:09.089Z,13.00
2023-04-25T13:10:36.976Z,13.80
2023-04-25T13:13:03.869Z,13.80
2023-04-25T13:15:31.072Z,13.40
2023-04-25T13:17:57.818Z,13.20
2023-04-25T13:20:24.738Z,13.60
2023-04-25T13:22:51.465Z,13.10
2023-04-25T13:25:18.102Z,12.90
2023-04-25T13:27:45.810Z,12.30
2023-04-25T13:30:13.075Z,12.00
2023-04-25T13:32:40.005Z,12.90
2023-04-25T13:35:12.541Z,12.80
2023-04-25T13:37:39.837Z,14.00
2023-04-25T13:40:10.477Z,14.30
2023-04-25T13:42:38.242Z,14.80
2023-04-25T13:45:05.485Z,15.70
2023-04-25T13:47:32.150Z,15.00
2023-04-25T13:49:58.841Z,15.60
2023-04-25T13:52:25.673Z,14.90
2023-04-25T13:54:52.441Z,15.20
2023-04-25T13:57:19.263Z,15.90
2023-04-25T13:59:46.974Z,15.10
2023-04-25T14:02:13.785Z,15.70
2023-04-25T14:04:40.840Z,15.40
2023-04-25T14:07:07.539Z,16.20
2023-04-25T14:09:34.353Z,16.60
2023-04-25T14:12:01.490Z,15.80
2023-04-25T14:14:28.086Z,15.80
2023-04-25T14:16:55.230Z,16.20
2023-04-25T14:19:22.519Z,16.40
2023-04-25T14:21:49.385Z,16.40
2023-04-25T14:24:16.724Z,16.50
2023-04-25T14:26:44.122Z,16.10
2023-04-25T14:29:13.000Z,14.30
2023-04-25T14:31:41.172Z,14.20
2023-04-25T14:34:08.653Z,14.30
2023-04-25T14:36:36.288Z,14.20
2023-04-25T14:39:03.457Z,14.10
2023-04-25T14:41:30.127Z,13.60
2023-04-25T14:43:57.932Z,13.20
2023-04-25T14:46:24.729Z,12.80
2023-04-25T14:48:51.614Z,12.70
2023-04-25T14:51:18.423Z,12.70
2023-04-25T14:53:45.494Z,12.40
2023-04-25T14:56:12.159Z,12.50
2023-04-25T14:58:39.891Z,12.60
2023-04-25T15:01:07.763Z,12.90
2023-04-25T15:03:34.616Z,13.20
2023-04-25T15:06:01.628Z,12.80
2023-04-25T15:08:28.248Z,13.80
2023-04-25T15:10:54.946Z,14.70
2023-04-25T15:13:21.757Z,15.10
2023-04-25T15:15:52.225Z,15.30
2023-04-25T15:18:23.181Z,15.20
2023-04-25T15:20:50.955Z,14.30
2023-04-25T15:23:18.942Z,14.50
2023-04-25T15:25:46.358Z,14.70
2023-04-25T15:28:15.908Z,15.20
2023-04-25T15:30:43.347Z,15.40
2023-04-25T15:33:10.173Z,15.40
2023-04-25T15:35:42.659Z,15.60
2023-04-25T15:38:11.504Z,14.90
2023-04-25T15:40:38.299Z,13.60
2023-04-25T15:43:04.939Z,14.90
2023-04-25T15:45:32.943Z,14.90
2023-04-25T15:47:59.714Z,14.80
2023-04-25T15:50:26.990Z,14.90
2023-04-25T15:52:53.712Z,14.50
2023-04-25T15:55:23.603Z,14.60
2023-04-25T15:57:51.342Z,14.30
2023-04-25T16:00:19.318Z,14.60
2023-04-25T16:02:48.269Z,14.30
2023-04-25T16:05:15.795Z,14.50
2023-04-25T16:07:44.253Z,14.70
2023-04-25T16:10:11.969Z,14.10
2023-04-25T16:12:40.305Z,13.80
2023-04-25T16:15:07.703Z,12.80
2023-04-25T16:17:34.538Z,12.40
2023-04-25T16:20:10.517Z,12.20
2023-04-25T16:22:56.677Z,13.00
2023-04-25T16:25:23.421Z,13.40
2023-04-25T16:27:50.529Z,13.20
2023-04-25T16:30:17.330Z,13.00
2023-04-25T16:32:45.532Z,13.30
2023-04-25T16:35:12.580Z,12.90
2023-04-25T16:37:39.276Z,13.00
2023-04-25T16:40:09.788Z,12.80
2023-04-25T16:42:36.727Z,12.50
2023-04-25T16:45:05.181Z,12.30
2023-04-25T16:47:32.343Z,12.60
2023-04-25T16:50:01.951Z,12.50
2023-04-25T16:52:28.752Z,12.60
2023-04-25T16:54:56.522Z,12.70
2023-04-25T16:57:23.318Z,12.70
2023-04-25T16:59:50.374Z,12.20
2023-04-25T17:02:20.969Z,12.00
2023-04-25T17:04:50.998Z,11.80
2023-04-25T17:07:26.033Z,11.90
2023-04-25T17:09:52.775Z,11.80
2023-04-25T17:12:25.067Z,11.80
2023-04-25T17:14:51.700Z,11.80
2023-04-25T17:17:21.494Z,11.40
2023-04-25T17:19:48.583Z,11.40
2023-04-25T17:22:15.615Z,11.30
2023-04-25T17:24:42.315Z,11.30
2023-04-25T17:27:08.978Z,10.90
2023-04-25T17:29:35.778Z,11.40
2023-04-25T17:32:02.772Z,11.00
2023-04-25T17:34:29.484Z,10.80
2023-04-25T17:36:56.182Z,10.50
2023-04-25T17:39:23.963Z,10.70
2023-04-25T17:41:50.654Z,11.00
2023-04-25T17:44:19.014Z,10.50
2023-04-25T17:46:45.772Z,10.40
2023-04-25T17:49:15.597Z,10.60
2023-04-25T17:51:44.270Z,10.70
2023-04-25T17:54:11.425Z,10.50
2023-04-25T17:56:41.569Z,10.50
2023-04-25T17:59:08.733Z,10.80
2023-04-25T18:01:36.013Z,10.60
2023-04-25T18:04:04.209Z,10.20
2023-04-25T18:06:32.873Z,10.30
2023-04-25T18:08:59.531Z,10.30
2023-04-25T18:11:28.494Z,10.20
2023-04-25T18:13:56.422Z,10.30
2023-04-25T18:16:29.792Z,10.20
2023-04-25T18:19:05.084Z,9.70
2023-04-25T18:21:32.403Z,9.70
2023-04-25T18:24:06.767Z,9.40
2023-04-25T18:26:33.330Z,9.90
2023-04-25T18:28:59.943Z,9.80
2023-04-25T18:31:26.718Z,9.60
2023-04-25T18:33:53.748Z,9.50
2023-04-25T18:36:20.593Z,9.50
2023-04-25T18:38:56.037Z,9.50
2023-04-25T18:41:52.037Z,9.50
2023-04-25T18:44:14.802Z,9.30
2023-04-25T18:46:43.610Z,9.20
2023-04-25T18:49:13.220Z,9.30
2023-04-25T18:51:39.887Z,9.00
2023-04-25T18:54:11.085Z,9.00
2023-04-25T18:56:39.034Z,9.10
2023-04-25T18:59:12.847Z,8.90
2023-04-25T19:01:39.640Z,9.00
2023-04-25T19:04:18.044Z,8.90
2023-04-25T19:06:46.525Z,8.50
2023-04-25T19:09:14.161Z,8.50
2023-04-25T19:11:41.010Z,8.60
2023-04-25T19:14:07.693Z,8.60
2023-04-25T19:16:38.835Z,8.50
2023-04-25T19:19:08.304Z,8.50
2023-04-25T19:21:35.809Z,8.50
2023-04-25T19:24:07.151Z,8.60
2023-04-25T19:26:34.975Z,8.50
2023-04-25T19:29:14.667Z,8.40
2023-04-25T19:31:43.268Z,8.40
2023-04-25T19:34:10.267Z,8.40
2023-04-25T19:36:42.223Z,8.50
2023-04-25T19:39:09.022Z,8.30
2023-04-25T19:41:39.148Z,8.30
2023-04-25T19:44:08.277Z,8.20
2023-04-25T19:46:36.261Z,8.20
2023-04-25T19:49:06.001Z,8.20
2023-04-25T19:51:33.958Z,8.20
2023-04-25T19:54:00.747Z,8.20
2023-04-25T19:56:27.579Z,8.10
2023-04-25T19:58:54.510Z,8.10
2023-04-25T20:01:24.401Z,8.10
2023-04-25T20:03:54.291Z,8.10
2023-04-25T20:06:21.622Z,7.90
2023-04-25T20:08:48.986Z,7.80
2023-04-25T20:11:15.948Z,7.80
2023-04-25T20:13:42.618Z,7.60
2023-04-25T20:16:09.277Z,7.60
2023-04-25T20:18:35.915Z,7.40
2023-04-25T20:21:02.701Z,7.60
2023-04-25T20:23:29.519Z,7.60
2023-04-25T20:25:56.301Z,7.60
2023-04-25T20:28:23.209Z,7.50
2023-04-25T20:30:50.682Z,7.40
2023-04-25T20:33:17.413Z,7.50
2023-04-25T20:35:44.166Z,7.40
2023-04-25T20:38:11.659Z,7.40
2023-04-25T20:40:38.404Z,7.30
2023-04-25T20:43:05.342Z,7.30
2023-04-25T20:45:34.313Z,7.30
2023-04-25T20:48:02.477Z,7.30
2023-04-25T20:50:29.236Z,7.20
2023-04-25T20:52:55.995Z,7.10
2023-04-25T20:55:22.654Z,7.10
2023-04-25T20:57:49.310Z,7.10
2023-04-25T21:00:26.648Z,7.10
2023-04-25T21:02:53.759Z,7.10
2023-04-25T21:05:23.904Z,7.10
2023-04-25T21:07:54.126Z,7.10
2023-04-25T21:10:20.969Z,7.00
2023-04-25T21:12:49.487Z,6.90
2023-04-25T21:15:22.601Z,6.90
2023-04-25T21:17:50.020Z,6.80
2023-04-25T21:20:18.552Z,6.70
2023-04-25T21:22:51.018Z,6.70
2023-04-25T21:25:24.461Z,6.60
2023-04-25T21:27:52.552Z,6.50
2023-04-25T21:30:23.392Z,6.40
2023-04-25T21:32:51.419Z,6.40
2023-04-25T21:35:19.543Z,6.40
2023-04-25T21:37:47.044Z,6.40
2023-04-25T21:40:15.097Z,6.30
2023-04-25T21:42:45.821Z,6.30
2023-04-25T21:45:12.731Z,6.20
2023-04-25T21:47:39.616Z,6.20
2023-04-25T21:50:07.377Z,6.10
2023-04-25T21:52:35.604Z,6.10
2023-04-25T21:55:02.194Z,6.00
2023-04-25T21:57:28.970Z,5.90
2023-04-25T21:59:56.186Z,5.90
2023-04-25T22:02:23.129Z,5.90
2023-04-25T22:04:49.954Z,5.70
2023-04-25T22:07:17.086Z,5.70
2023-04-25T22:09:54.250Z,5.60
2023-04-25T22:12:22.578Z,5.60
2023-04-25T22:14:49.454Z,5.60
2023-04-25T22:17:16.105Z,5.60
2023-04-25T22:19:43.222Z,5.50
2023-04-25T22:22:10.009Z,5.40
2023-04-25T22:24:36.843Z,5.40
2023-04-25T22:27:03.568Z,5.40
2023-04-25T22:29:30.245Z,5.30
2023-04-25T22:31:57.148Z,5.20
2023-04-25T22:34:23.830Z,5.20
2023-04-25T22:36:50.526Z,5.20
2023-04-25T22:39:17.175Z,5.20
2023-04-25T22:41:43.935Z,5.10
2023-04-25T22:44:11.242Z,5.00
2023-04-25T22:46:37.918Z,5.00
2023-04-25T22:49:04.925Z,4.90
2023-04-25T22:51:32.135Z,4.90
2023-04-25T22:53:59.241Z,4.90
2023-04-25T22:56:28.953Z,4.80
2023-04-25T22:58:55.579Z,4.80
2023-04-25T23:01:22.218Z,4.80
2023-04-25T23:03:49.473Z,4.70
2023-04-25T23:06:17.403Z,4.70
2023-04-25T23:08:44.091Z,4.70
2023-04-25T23:11:11.202Z,4.70
2023-04-25T23:13:37.898Z,4.60
2023-04-25T23:16:08.766Z,4.60
2023-04-25T23:18:40.212Z,4.50
2023-04-25T23:21:09.052Z,4.50
2023-04-25T23:23:36.513Z,4.50
2023-04-25T23:26:10.206Z,4.50
2023-04-25T23:28:40.599Z,4.40
2023-04-25T23:31:09.578Z,4.50
2023-04-25T23:33:36.675Z,4.50
2023-04-25T23:36:03.814Z,4.40
2023-04-25T23:38:30.529Z,4.30
2023-04-25T23:40:57.150Z,4.30
2023-04-25T23:43:23.873Z,4.20
2023-04-25T23:45:50.568Z,4.20
2023-04-25T23:48:17.263Z,4.20
2023-04-25T23:50:43.979Z,4.20
2023-04-25T23:53:10.720Z,4.10
2023-04-25T23:55:37.533Z,4.10
2023-04-25T23:58:04.226Z,4.10
